メキシコシティ の空港の天気 - METARとTAF

メキシコ・シティ国際空港 ( MMMX / MEX ) - メキシコ メキシコシティ
飛行場実況気象(Metar)
観測時間04/26 22:47 CDT (04/27 03:47 UTC)
風向・風速南南西 2m/s
視程9650m
天気現象
全天の8割程度の雲 雲底高度 610m
全天を覆う雲 雲底高度 2440m
気温17℃
湿度68%
気圧1026hPa
METARMMMX 270347Z 21003KT 6SM BKN020CB OVC080 17/11 A3031 NOSIG RMK 8/96/ HZY OCNL DROPS
過去の天気等 Google飛行場航空写真 Wunderground天気予報

過去48時間のMETAR

飛行場予報(TAF)
発表時間: 4/26 20:36 CDT (4/27 01:36 UTC)
予報対象時間: 26日20時 CDT ~ 28日1時 CDT
風向・風速南南西 5m/s
視程8,050m
天気現象雷雨
全天の8割程度の積乱雲 雲底高度 610m
全天を覆う雲 雲底高度 2,440m
26日20時 CDT ~ 26日23時 CDT に一時的に
視程3,220m
天気現象雷雨
27日1時 CDT から
風向・風速静穏
視程8,050m
天気現象煙霧
全天の8割程度の雲 雲底高度 610m
全天の8割程度の雲 雲底高度 2,440m
27日5時 CDT ~ 27日6時 CDT に徐々に
視程6,440m
天気現象煙霧
全天の4割程度の雲 雲底高度 610m
27日12時 CDT から
風向・風速東北東 5m/s
視程10km以上
全天の4割程度の雲 雲底高度 610m
27日17時 CDT ~ 27日21時 CDT に一時的に
視程8,050m
天気現象雷雨
全天の8割程度の積乱雲 雲底高度 610m
全天の8割程度の雲 雲底高度 2,440m
TAF COR MMMX 270136Z 2701/2806 20010KT 5SM TSRA BKN020CB OVC080 TX26/2722Z TN12/2713Z
TEMPO 2701/2704 2SM TSRA
FM270600 00000KT 5SM HZ BKN020 BKN080
BECMG 2710/2711 4SM HZ SCT020
FM271700 06010KT P6SM SCT020
TEMPO 2722/2802 5SM TSRA BKN020CB BKN080